Time;durP1;ratioP1;P1;durP2;ratioP2;P2;SDS_P1;SDS_P2;PMS_P1;PMS_P2;Temp;Humidity;BMP_temperature;BMP_pressure;BME280_temperature;BME280_humidity;BME280_pressure;Samples;Min_cycle;Max_cycle;Signal;HPM_P1;HPM_P2
2022/05/19 00:02:27;;;;;;;3.60;2.40;;;26.20;47.10;;;;;;10100375;28;20112;-60
2022/05/19 00:07:18;;;;;;;6.65;2.35;;;26.10;47.50;;;;;;10092382;28;20040;-67
2022/05/19 00:12:16;;;;;;;3.80;2.53;;;26.10;47.70;;;;;;10092150;28;20495;-64
2022/05/19 00:17:07;;;;;;;2.90;2.40;;;26.00;47.90;;;;;;10080846;28;20295;-60
2022/05/19 00:21:58;;;;;;;2.20;1.92;;;26.10;48.10;;;;;;10087487;28;20028;-60
2022/05/19 00:26:49;;;;;;;2.55;1.73;;;26.00;48.30;;;;;;10093176;28;20049;-67
2022/05/19 00:31:39;;;;;;;3.47;1.80;;;25.90;48.10;;;;;;10094890;28;20407;-60
2022/05/19 00:36:30;;;;;;;2.30;1.77;;;25.80;48.20;;;;;;10091445;28;20509;-67
2022/05/19 00:41:22;;;;;;;2.38;1.80;;;25.80;48.40;;;;;;10091932;28;20021;-64
2022/05/19 00:46:32;;;;;;;3.03;2.20;;;25.80;48.40;;;;;;10091843;28;20056;-60
2022/05/19 00:51:41;;;;;;;4.85;1.90;;;25.80;48.50;;;;;;10091082;28;20037;-61
2022/05/19 00:56:45;;;;;;;3.85;1.90;;;25.70;48.70;;;;;;10083513;28;20476;-62
2022/05/19 01:01:40;;;;;;;2.35;1.83;;;25.70;48.90;;;;;;10092070;28;20021;-68
2022/05/19 01:06:33;;;;;;;5.47;2.10;;;25.60;49.20;;;;;;10092590;28;20524;-65
2022/05/19 01:11:24;;;;;;;4.57;2.97;;;25.50;49.10;;;;;;10096945;28;20029;-62
2022/05/19 01:16:15;;;;;;;3.05;1.67;;;25.40;50.00;;;;;;10097262;28;20033;-63
2022/05/19 01:21:09;;;;;;;3.78;1.98;;;25.40;49.60;;;;;;10086968;28;20029;-60
2022/05/19 01:26:16;;;;;;;4.75;2.15;;;25.30;49.90;;;;;;10097730;28;20303;-68
2022/05/19 01:31:06;;;;;;;4.15;2.42;;;25.30;50.20;;;;;;10090694;28;20052;-64
2022/05/19 01:35:57;;;;;;;3.85;2.60;;;25.20;51.10;;;;;;10096159;28;20535;-69
2022/05/19 01:41:06;;;;;;;4.03;2.35;;;25.10;50.50;;;;;;10100176;28;20093;-60
2022/05/19 01:46:20;;;;;;;4.50;2.50;;;25.00;51.00;;;;;;10100914;28;20040;-66
2022/05/19 01:51:26;;;;;;;3.40;2.20;;;25.00;51.10;;;;;;10098850;28;20029;-64
2022/05/19 01:56:31;;;;;;;3.33;2.30;;;25.00;51.20;;;;;;10098031;28;20032;-66
2022/05/19 02:01:26;;;;;;;3.25;2.42;;;25.00;51.30;;;;;;10097206;28;20075;-64
2022/05/19 02:06:31;;;;;;;3.38;2.42;;;24.90;51.20;;;;;;10107919;28;20088;-63
2022/05/19 02:11:26;;;;;;;6.18;2.28;;;24.80;51.40;;;;;;10098315;28;20087;-68
2022/05/19 02:16:19;;;;;;;5.47;2.47;;;24.90;51.50;;;;;;10100621;28;20033;-65
2022/05/19 02:21:10;;;;;;;3.05;1.90;;;24.70;51.60;;;;;;10102339;28;20029;-66
2022/05/19 02:26:01;;;;;;;5.28;2.35;;;24.60;51.90;;;;;;10096480;28;20041;-64
2022/05/19 02:30:52;;;;;;;3.35;2.40;;;24.60;52.10;;;;;;10096607;28;20454;-61
2022/05/19 02:35:43;;;;;;;4.35;2.47;;;24.60;52.10;;;;;;10099273;28;20025;-65
2022/05/19 02:40:36;;;;;;;5.30;2.72;;;24.60;52.00;;;;;;10096504;28;20035;-62
2022/05/19 02:45:27;;;;;;;3.38;2.10;;;24.50;52.20;;;;;;10079288;28;20037;-62
2022/05/19 02:50:20;;;;;;;2.97;2.42;;;24.50;52.20;;;;;;10099424;28;20175;-62
2022/05/19 02:55:11;;;;;;;3.65;2.78;;;24.50;52.30;;;;;;10096946;28;20013;-59
2022/05/19 03:00:07;;;;;;;3.47;2.40;;;24.30;52.50;;;;;;10095515;28;20021;-59
2022/05/19 03:04:58;;;;;;;3.05;2.10;;;24.20;52.90;;;;;;10093266;28;20108;-66
2022/05/19 03:09:49;;;;;;;3.22;2.45;;;24.20;53.50;;;;;;10093926;28;20066;-63
2022/05/19 03:14:40;;;;;;;4.15;2.53;;;24.00;54.00;;;;;;10097040;28;20079;-63
2022/05/19 03:19:30;;;;;;;3.40;2.58;;;23.90;54.50;;;;;;10089143;28;20029;-71
2022/05/19 03:24:21;;;;;;;4.35;2.97;;;23.70;55.10;;;;;;10094424;28;20021;-69
2022/05/19 03:29:12;;;;;;;5.18;2.65;;;23.60;55.50;;;;;;10093824;28;20050;-67
2022/05/19 03:34:02;;;;;;;5.57;2.55;;;23.50;55.60;;;;;;10094746;28;20070;-69
2022/05/19 03:38:53;;;;;;;4.32;2.67;;;23.80;55.60;;;;;;10094624;28;20025;-65
2022/05/19 03:43:44;;;;;;;3.65;2.38;;;23.60;55.90;;;;;;10093799;28;20064;-60
2022/05/19 03:48:39;;;;;;;3.08;2.53;;;23.50;56.50;;;;;;10093876;28;20491;-68
2022/05/19 03:53:30;;;;;;;;;;;23.50;56.50;;;;;;10094336;28;20023;-66
2022/05/19 03:58:20;;;;;;;2.97;2.10;;;23.40;56.70;;;;;;10093425;28;20131;-66
2022/05/19 04:03:11;;;;;;;4.15;2.63;;;23.30;56.70;;;;;;10098335;28;20024;-63
2022/05/19 04:08:03;;;;;;;4.13;2.55;;;23.30;57.10;;;;;;10099926;28;20044;-70
2022/05/19 04:12:53;;;;;;;4.50;2.60;;;23.30;57.10;;;;;;10101182;28;20421;-67
2022/05/19 04:17:44;;;;;;;5.60;2.95;;;23.30;57.30;;;;;;10101594;28;20040;-64
2022/05/19 04:22:35;;;;;;;7.15;3.00;;;23.20;57.30;;;;;;10092465;28;20344;-72
2022/05/19 04:27:30;;;;;;;6.22;2.67;;;23.20;57.60;;;;;;10092420;28;20061;-66
2022/05/19 04:32:21;;;;;;;3.30;2.47;;;23.20;57.50;;;;;;10092140;28;20109;-69
2022/05/19 04:37:12;;;;;;;4.60;2.65;;;23.20;57.60;;;;;;10123979;28;20140;-70
2022/05/19 04:42:07;;;;;;;5.85;3.05;;;23.20;57.80;;;;;;10092228;28;20081;-63
2022/05/19 04:46:57;;;;;;;5.10;2.80;;;23.30;57.80;;;;;;10090708;28;20502;-66
2022/05/19 04:51:48;;;;;;;3.63;3.10;;;23.30;57.60;;;;;;10092642;28;20164;-66
2022/05/19 04:56:42;;;;;;;3.60;2.05;;;23.20;57.60;;;;;;10092540;28;20021;-65
2022/05/19 05:01:33;;;;;;;3.77;2.87;;;23.30;57.50;;;;;;10093797;28;20059;-61
2022/05/19 05:06:23;;;;;;;2.50;2.22;;;23.30;57.70;;;;;;10094354;28;20462;-63
2022/05/19 05:11:14;;;;;;;5.55;2.70;;;23.40;57.70;;;;;;10099084;28;20025;-66
2022/05/19 05:16:05;;;;;;;4.18;2.33;;;23.50;57.40;;;;;;10105359;28;20133;-60
2022/05/19 05:20:56;;;;;;;3.85;2.20;;;23.40;57.70;;;;;;10096362;28;20104;-62
2022/05/19 05:25:47;;;;;;;6.07;2.53;;;23.40;58.10;;;;;;10099672;28;20049;-63
2022/05/19 05:30:38;;;;;;;3.13;2.25;;;23.50;58.10;;;;;;10101874;28;20021;-60
2022/05/19 05:35:29;;;;;;;3.38;2.80;;;23.50;58.20;;;;;;10101699;28;20527;-62
2022/05/19 05:40:19;;;;;;;3.58;2.47;;;23.50;58.20;;;;;;10101115;28;20399;-63
2022/05/19 05:45:12;;;;;;;2.92;2.10;;;23.50;58.20;;;;;;10099933;28;20036;-66
2022/05/19 05:50:03;;;;;;;3.00;2.17;;;23.70;58.30;;;;;;10098515;28;20442;-61
2022/05/19 05:54:54;;;;;;;4.13;2.33;;;23.80;58.10;;;;;;10097560;28;20029;-61
2022/05/19 05:59:45;;;;;;;4.25;2.55;;;23.70;58.40;;;;;;10098183;28;20041;-61
2022/05/19 06:04:36;;;;;;;3.20;2.78;;;23.80;58.50;;;;;;10106134;28;20143;-61
2022/05/19 06:09:26;;;;;;;4.22;2.88;;;23.90;58.50;;;;;;10104959;28;20050;-61
2022/05/19 06:14:17;;;;;;;4.50;3.00;;;23.80;58.70;;;;;;10096215;28;20029;-59
2022/05/19 06:19:09;;;;;;;3.20;2.53;;;23.90;58.90;;;;;;10094178;28;20078;-59
2022/05/19 06:24:00;;;;;;;3.58;2.83;;;23.90;59.00;;;;;;10091665;28;20032;-61
2022/05/19 06:28:51;;;;;;;7.32;3.28;;;24.10;58.90;;;;;;10095677;28;20474;-65
2022/05/19 06:33:41;;;;;;;3.42;2.50;;;24.30;58.80;;;;;;10099153;28;20029;-61
2022/05/19 06:38:32;;;;;;;4.68;3.35;;;24.60;58.60;;;;;;10119208;28;20111;-63
2022/05/19 06:43:24;;;;;;;5.05;2.67;;;24.50;59.00;;;;;;10130392;28;20020;-66
2022/05/19 06:48:15;;;;;;;5.60;3.53;;;24.60;58.80;;;;;;10123464;28;20028;-65
2022/05/19 06:53:06;;;;;;;3.20;2.30;;;24.90;58.60;;;;;;10122200;28;20546;-70
2022/05/19 06:57:57;;;;;;;2.83;2.40;;;25.00;58.50;;;;;;10127852;28;20482;-68
2022/05/19 07:02:50;;;;;;;5.07;3.00;;;25.00;58.50;;;;;;10115561;28;20018;-66
2022/05/19 07:07:41;;;;;;;4.13;2.42;;;25.20;58.60;;;;;;10123328;28;20595;-65
2022/05/19 07:12:33;;;;;;;5.55;3.25;;;25.20;58.40;;;;;;10125538;28;20116;-64
2022/05/19 07:17:24;;;;;;;4.95;3.45;;;25.30;58.50;;;;;;10120310;28;20610;-65
2022/05/19 07:22:19;;;;;;;3.80;2.47;;;25.30;58.80;;;;;;10101266;28;20244;-62
2022/05/19 07:27:09;;;;;;;3.72;2.53;;;25.50;58.50;;;;;;10102059;28;20041;-63
2022/05/19 07:32:03;;;;;;;4.90;2.53;;;25.70;58.40;;;;;;10107690;28;20552;-65
2022/05/19 07:36:55;;;;;;;3.30;2.28;;;25.80;58.40;;;;;;10108444;28;20036;-63
2022/05/19 07:41:47;;;;;;;3.03;2.35;;;25.90;58.30;;;;;;10089691;28;20029;-64
2022/05/19 07:46:38;;;;;;;3.88;2.85;;;25.90;58.30;;;;;;10120138;28;20090;-63
2022/05/19 07:51:37;;;;;;;4.32;2.63;;;26.00;58.20;;;;;;10094431;28;20090;-65
2022/05/19 07:56:27;;;;;;;4.28;2.80;;;26.10;58.00;;;;;;10084118;28;20051;-67
2022/05/19 08:01:18;;;;;;;2.53;2.20;;;26.10;58.10;;;;;;10099855;28;20028;-65
2022/05/19 08:06:10;;;;;;;7.10;2.65;;;26.20;57.80;;;;;;10106950;28;20542;-63
2022/05/19 08:11:01;;;;;;;3.03;2.42;;;26.40;57.70;;;;;;10099697;28;20041;-62
2022/05/19 08:15:52;;;;;;;4.53;2.63;;;26.60;57.50;;;;;;10118015;28;20025;-61
2022/05/19 08:20:56;;;;;;;5.03;2.72;;;26.60;57.60;;;;;;10085508;28;20115;-63
2022/05/19 08:25:48;;;;;;;3.90;2.40;;;26.70;57.50;;;;;;10086963;28;20048;-63
2022/05/19 08:30:38;;;;;;;4.32;2.72;;;26.80;57.40;;;;;;10107096;28;20032;-65
2022/05/19 08:35:29;;;;;;;4.25;2.90;;;26.80;57.30;;;;;;10122510;28;20497;-65
2022/05/19 08:40:20;;;;;;;3.72;2.95;;;27.00;57.10;;;;;;10103167;28;20495;-63
2022/05/19 08:45:22;;;;;;;7.15;3.20;;;27.10;57.00;;;;;;10104788;28;20108;-65
2022/05/19 08:50:27;;;;;;;3.80;2.72;;;27.20;57.20;;;;;;10098443;28;20128;-64
2022/05/19 08:55:19;;;;;;;4.10;2.90;;;27.20;57.10;;;;;;10099347;28;20074;-65
2022/05/19 09:00:13;;;;;;;2.60;2.35;;;27.40;56.90;;;;;;10100298;28;20053;-64
2022/05/19 09:05:13;;;;;;;6.18;2.40;;;27.60;56.70;;;;;;10112112;28;20025;-64
2022/05/19 09:10:09;;;;;;;3.95;2.60;;;27.80;56.70;;;;;;10122384;28;20185;-63
2022/05/19 09:15:00;;;;;;;6.75;2.47;;;27.90;56.60;;;;;;10121791;28;20099;-62
2022/05/19 09:19:59;;;;;;;4.88;2.60;;;28.00;56.40;;;;;;10123308;28;20135;-66
2022/05/19 09:24:52;;;;;;;3.35;2.25;;;28.20;56.40;;;;;;10125794;28;20025;-63
2022/05/19 09:29:52;;;;;;;5.00;2.53;;;28.40;56.10;;;;;;10120062;28;20037;-63
2022/05/19 09:34:49;;;;;;;4.85;2.58;;;28.80;55.80;;;;;;10120296;28;20019;-65
2022/05/19 09:39:49;;;;;;;3.17;2.80;;;29.10;55.30;;;;;;10129789;28;20029;-64
2022/05/19 09:44:53;;;;;;;6.82;2.80;;;29.10;55.20;;;;;;10121839;28;20009;-64
2022/05/19 09:49:49;;;;;;;;;;;29.10;55.20;;;;;;10127825;28;20438;-64
2022/05/19 09:54:40;;;;;;;5.82;2.38;;;29.00;55.10;;;;;;10127093;28;19904;-63
2022/05/19 09:59:37;;;;;;;3.20;2.40;;;29.10;55.10;;;;;;10097543;28;20025;-62
2022/05/19 10:04:39;;;;;;;4.53;2.83;;;29.30;54.90;;;;;;10099418;28;20467;-63
2022/05/19 10:09:33;;;;;;;4.22;2.85;;;29.70;54.40;;;;;;10119606;28;20033;-62
2022/05/19 10:14:30;;;;;;;6.10;2.95;;;30.00;53.80;;;;;;10096713;28;20086;-62
2022/05/19 10:19:39;;;;;;;3.97;2.72;;;30.10;53.60;;;;;;10093686;28;20017;-63
2022/05/19 10:24:48;;;;;;;5.63;2.70;;;30.30;53.40;;;;;;10096399;28;20020;-64
2022/05/19 10:35:24;;;;;;;7.75;2.63;;;30.90;52.40;;;;;;10093868;28;20044;-63
2022/05/19 10:40:42;;;;;;;6.82;3.80;;;30.80;52.60;;;;;;10094305;28;20433;-63
2022/05/19 10:45:37;;;;;;;2.75;2.55;;;30.70;52.00;;;;;;10094995;28;20017;-63
2022/05/19 10:50:36;;;;;;;3.67;3.20;;;30.60;52.20;;;;;;10095170;28;20064;-63
2022/05/19 10:56:04;;;;;;;3.85;2.88;;;30.70;51.90;;;;;;10095700;28;20025;-62
2022/05/19 11:01:12;;;;;;;3.03;2.60;;;30.90;51.20;;;;;;10094838;28;20184;-63
2022/05/19 11:06:38;;;;;;;3.95;3.17;;;31.10;51.00;;;;;;10089217;28;20108;-65
2022/05/19 11:11:38;;;;;;;3.28;2.50;;;31.20;50.90;;;;;;10025994;28;20045;-65
2022/05/19 11:16:47;;;;;;;4.72;3.50;;;31.40;50.60;;;;;;10097569;28;20661;-63
2022/05/19 11:21:55;;;;;;;12.13;4.43;;;31.50;49.90;;;;;;10089178;28;20036;-63
2022/05/19 11:26:54;;;;;;;7.80;3.65;;;31.60;50.00;;;;;;10092638;28;20044;-65
2022/05/19 11:31:56;;;;;;;4.68;2.50;;;31.70;49.50;;;;;;10092358;28;20037;-62
2022/05/19 11:36:58;;;;;;;4.22;3.83;;;31.70;49.20;;;;;;10095308;28;20020;-64
2022/05/19 11:41:51;;;;;;;5.05;2.85;;;31.80;48.80;;;;;;10093660;28;20040;-64
2022/05/19 11:46:53;;;;;;;5.30;2.75;;;31.90;48.40;;;;;;10093012;28;20120;-66
2022/05/19 11:57:19;;;;;;;6.25;2.65;;;32.40;47.50;;;;;;10091045;28;20063;-64
2022/05/19 12:02:11;;;;;;;3.72;2.58;;;32.40;47.40;;;;;;10115936;28;20029;-61
2022/05/19 12:07:11;;;;;;;7.45;2.45;;;32.70;47.20;;;;;;10111042;28;20316;-63
2022/05/19 12:12:18;;;;;;;9.23;2.45;;;33.00;46.60;;;;;;10098884;28;20025;-65
2022/05/19 12:17:31;;;;;;;3.72;2.42;;;33.60;45.60;;;;;;10098350;28;20041;-63
2022/05/19 12:22:32;;;;;;;4.78;2.50;;;33.90;45.00;;;;;;10092895;28;20021;-64
2022/05/19 12:27:29;;;;;;;5.20;2.58;;;34.10;45.20;;;;;;10102513;28;20121;-63
2022/05/19 12:32:27;;;;;;;4.63;2.80;;;34.30;45.10;;;;;;10122542;28;20036;-63
2022/05/19 12:37:36;;;;;;;3.50;2.50;;;34.80;44.80;;;;;;10120923;28;20025;-63
2022/05/19 12:42:35;;;;;;;2.67;2.10;;;35.10;44.00;;;;;;10126632;28;20631;-66
2022/05/19 12:47:30;;;;;;;2.70;2.20;;;35.30;44.10;;;;;;10122957;28;20037;-64
2022/05/19 12:52:20;;;;;;;3.30;2.35;;;35.80;43.40;;;;;;10109884;28;20269;-62
2022/05/19 12:57:11;;;;;;;4.45;2.55;;;35.60;42.90;;;;;;10115163;28;20236;-67
2022/05/19 13:02:09;;;;;;;15.38;3.10;;;35.40;42.60;;;;;;10101987;28;20550;-64
2022/05/19 13:07:10;;;;;;;4.20;2.28;;;34.60;42.50;;;;;;10094150;28;20041;-64
2022/05/19 13:12:19;;;;;;;4.00;2.60;;;34.70;42.10;;;;;;10092186;28;20025;-68
2022/05/19 13:17:20;;;;;;;6.00;2.67;;;34.80;42.00;;;;;;10101462;28;20064;-67
2022/05/19 13:22:22;;;;;;;4.53;2.85;;;34.20;41.50;;;;;;10141787;28;20029;-65
2022/05/19 13:32:48;;;;;;;4.80;2.30;;;36.00;39.30;;;;;;10122655;28;20039;-63
2022/05/19 13:37:42;;;;;;;4.63;2.10;;;34.50;40.70;;;;;;10121628;28;20483;-63
2022/05/19 13:42:36;;;;;;;4.82;2.13;;;36.20;40.60;;;;;;10127839;28;20013;-65
2022/05/19 13:47:28;;;;;;;3.00;1.98;;;35.30;39.50;;;;;;10128944;28;20068;-64
2022/05/19 13:52:22;;;;;;;4.50;3.13;;;34.30;40.10;;;;;;10125716;28;20016;-64
2022/05/19 13:57:24;;;;;;;6.22;2.13;;;33.70;40.30;;;;;;10117034;28;20172;-64
2022/05/19 14:02:22;;;;;;;9.80;3.27;;;34.70;39.80;;;;;;10101276;28;20523;-64
2022/05/19 14:07:15;;;;;;;3.10;2.45;;;37.40;38.80;;;;;;10101356;28;20848;-64
2022/05/19 14:12:21;;;;;;;4.65;2.50;;;38.60;38.50;;;;;;10107697;28;20162;-63
2022/05/19 14:17:11;;;;;;;10.00;3.10;;;37.20;38.80;;;;;;10115393;28;20060;-64
2022/05/19 14:22:02;;;;;;;2.95;2.65;;;37.70;39.10;;;;;;10091678;28;20029;-65
2022/05/19 14:26:55;;;;;;;4.47;3.08;;;38.90;38.20;;;;;;10095879;28;20052;-63
2022/05/19 14:31:48;;;;;;;4.30;2.70;;;37.90;38.30;;;;;;10103399;28;20068;-64
2022/05/19 14:36:59;;;;;;;5.28;2.72;;;37.00;38.80;;;;;;10115874;28;20090;-65
2022/05/19 14:47:04;;;;;;;5.47;2.53;;;33.80;40.70;;;;;;10096834;28;20055;-68
2022/05/19 14:51:59;;;;;;;3.67;2.08;;;35.60;39.20;;;;;;10090664;28;20067;-69
2022/05/19 14:56:56;;;;;;;5.55;2.78;;;36.90;38.20;;;;;;10094165;28;20033;-63
2022/05/19 15:01:47;;;;;;;4.95;3.08;;;37.30;37.80;;;;;;10101259;28;20089;-67
2022/05/19 15:06:38;;;;;;;6.17;2.73;;;37.20;38.10;;;;;;10094112;28;20089;-65
2022/05/19 15:11:30;;;;;;;4.20;2.60;;;37.90;37.70;;;;;;10099262;28;20025;-69
2022/05/19 15:16:22;;;;;;;6.97;2.72;;;39.20;37.10;;;;;;10133300;28;20028;-64
2022/05/19 15:21:13;;;;;;;12.80;2.92;;;39.40;36.50;;;;;;10088827;28;20072;-65
2022/05/19 15:26:06;;;;;;;5.13;2.67;;;38.30;37.50;;;;;;10099427;28;20098;-66
2022/05/19 15:30:56;;;;;;;5.20;3.00;;;37.00;38.40;;;;;;10124175;28;20037;-68
2022/05/19 15:35:47;;;;;;;4.20;3.03;;;35.00;40.30;;;;;;10119429;28;20377;-65
2022/05/19 15:40:38;;;;;;;6.35;2.63;;;34.00;41.20;;;;;;10123897;28;20035;-64
2022/05/19 15:45:30;;;;;;;3.45;3.08;;;34.90;40.70;;;;;;10111539;28;20140;-62
2022/05/19 15:50:32;;;;;;;6.93;2.67;;;37.20;39.00;;;;;;10092040;28;20052;-65
2022/05/19 15:55:27;;;;;;;5.10;2.70;;;37.90;38.50;;;;;;10094464;28;20044;-69
2022/05/19 16:00:19;;;;;;;5.78;3.17;;;38.50;38.00;;;;;;10091291;28;20033;-68
2022/05/19 16:05:13;;;;;;;6.65;2.78;;;37.90;38.00;;;;;;10091246;28;20056;-67
2022/05/19 16:10:06;;;;;;;4.28;2.53;;;38.40;37.70;;;;;;10093721;28;20073;-67
2022/05/19 16:14:58;;;;;;;6.72;3.13;;;38.90;36.80;;;;;;10108383;28;20418;-64
2022/05/19 16:19:49;;;;;;;3.15;2.80;;;39.20;36.50;;;;;;10115341;28;20027;-71
2022/05/19 16:24:41;;;;;;;;;;;40.00;36.10;;;;;;10108829;28;20028;-68
2022/05/19 16:29:32;;;;;;;3.35;2.10;;;40.70;35.10;;;;;;10104383;28;19927;-65
2022/05/19 16:34:24;;;;;;;4.93;2.35;;;40.70;35.50;;;;;;10101045;28;20031;-63
2022/05/19 16:39:14;;;;;;;4.70;2.60;;;38.00;36.60;;;;;;10101060;28;20338;-70
2022/05/19 16:44:05;;;;;;;3.85;3.13;;;35.30;38.60;;;;;;10088816;28;20113;-68
2022/05/19 16:48:57;;;;;;;4.78;2.95;;;34.00;39.60;;;;;;10091179;28;20052;-62
2022/05/19 16:58:56;;;;;;;3.33;2.08;;;33.00;40.30;;;;;;10089308;28;20134;-65
2022/05/19 17:03:50;;;;;;;5.72;2.50;;;32.60;40.90;;;;;;10093118;28;20114;-62
2022/05/19 17:08:41;;;;;;;3.88;2.70;;;32.30;41.60;;;;;;10104006;28;20043;-67
2022/05/19 17:13:32;;;;;;;6.05;2.65;;;32.20;41.80;;;;;;10130071;28;20037;-65
2022/05/19 17:18:23;;;;;;;3.50;2.63;;;32.40;41.70;;;;;;10120766;28;20403;-65
2022/05/19 17:23:14;;;;;;;4.80;2.35;;;32.70;41.60;;;;;;10113240;28;20124;-65
2022/05/19 17:28:05;;;;;;;3.47;2.10;;;32.90;41.80;;;;;;10117281;28;20582;-66
2022/05/19 17:32:57;;;;;;;3.15;2.28;;;32.70;41.80;;;;;;10098837;28;20044;-64
2022/05/19 17:37:48;;;;;;;3.13;2.22;;;32.30;42.40;;;;;;10111712;28;20025;-64
2022/05/19 17:42:38;;;;;;;3.50;2.40;;;32.20;42.40;;;;;;10090146;28;20737;-66
2022/05/19 17:47:31;;;;;;;4.57;2.63;;;32.10;42.50;;;;;;10088784;28;20037;-66
2022/05/19 17:52:23;;;;;;;4.60;2.03;;;32.00;42.60;;;;;;10097775;28;20021;-66
2022/05/19 17:57:14;;;;;;;2.67;2.13;;;32.00;42.50;;;;;;10093749;28;20038;-66
2022/05/19 18:02:05;;;;;;;3.25;1.80;;;32.10;42.40;;;;;;10095886;28;20555;-65
2022/05/19 18:06:56;;;;;;;6.07;2.30;;;32.00;42.60;;;;;;10098060;28;20033;-65
2022/05/19 18:11:48;;;;;;;6.55;2.40;;;31.80;42.60;;;;;;10095834;28;20507;-65
2022/05/19 18:21:48;;;;;;;4.50;2.50;;;31.90;42.70;;;;;;10096968;28;20094;-64
2022/05/19 18:26:40;;;;;;;4.07;2.70;;;31.80;42.80;;;;;;10095556;28;20126;-64
2022/05/19 18:31:31;;;;;;;3.22;2.47;;;31.70;42.90;;;;;;10096046;28;20569;-64
2022/05/19 18:36:21;;;;;;;3.60;3.28;;;31.60;43.20;;;;;;10097198;28;20549;-65
2022/05/19 18:46:23;;;;;;;3.42;2.13;;;31.30;43.60;;;;;;10095919;28;20083;-66
2022/05/19 18:51:14;;;;;;;6.45;2.42;;;31.20;43.80;;;;;;10099561;28;20013;-64
2022/05/19 18:56:08;;;;;;;3.10;2.28;;;30.90;44.20;;;;;;10094948;28;20162;-67
2022/05/19 19:01:01;;;;;;;4.43;2.78;;;30.80;44.30;;;;;;10092452;28;20020;-65
2022/05/19 19:05:52;;;;;;;3.40;2.20;;;30.60;44.40;;;;;;10095630;28;20041;-65
2022/05/19 19:10:42;;;;;;;3.55;2.10;;;30.50;44.50;;;;;;10094105;28;20033;-64
2022/05/19 19:15:33;;;;;;;5.47;2.28;;;30.50;44.50;;;;;;10096316;28;20023;-64
2022/05/19 19:20:25;;;;;;;4.43;2.85;;;30.40;44.60;;;;;;10093617;28;20043;-65
2022/05/19 19:25:15;;;;;;;2.78;2.40;;;30.30;44.80;;;;;;10094093;28;20502;-66
2022/05/19 19:30:07;;;;;;;7.05;4.22;;;30.10;45.10;;;;;;10095205;28;20039;-66
2022/05/19 19:34:58;;;;;;;3.45;2.70;;;30.00;45.50;;;;;;10093210;28;20445;-65
2022/05/19 19:39:49;;;;;;;6.43;2.63;;;29.90;45.60;;;;;;10092719;28;20128;-64
2022/05/19 19:44:39;;;;;;;4.47;2.90;;;29.70;46.00;;;;;;10102990;28;20427;-64
2022/05/19 19:49:30;;;;;;;5.43;3.13;;;29.60;46.50;;;;;;10093233;28;20110;-65
2022/05/19 19:54:22;;;;;;;6.88;3.25;;;29.50;46.80;;;;;;10092603;28;20112;-64
2022/05/19 19:59:17;;;;;;;6.30;3.47;;;29.40;47.20;;;;;;10092914;28;20025;-66
2022/05/19 20:04:09;;;;;;;4.57;3.10;;;29.30;47.40;;;;;;10092735;28;20029;-64
2022/05/19 20:08:59;;;;;;;4.57;3.10;;;29.30;47.90;;;;;;10091298;28;20047;-65
2022/05/19 20:13:50;;;;;;;9.05;3.85;;;29.30;48.20;;;;;;10096382;28;20017;-65
2022/05/19 20:18:43;;;;;;;4.63;3.30;;;29.20;48.40;;;;;;10089748;28;20036;-65
2022/05/19 20:23:34;;;;;;;4.53;2.80;;;29.10;49.00;;;;;;10086783;28;20136;-66
2022/05/19 20:28:25;;;;;;;4.00;2.67;;;28.90;49.20;;;;;;10096666;28;20052;-66
2022/05/19 20:33:15;;;;;;;5.85;3.50;;;28.90;49.80;;;;;;10089747;28;20037;-64
2022/05/19 20:38:06;;;;;;;5.25;3.50;;;28.80;50.00;;;;;;10090960;28;20376;-64
2022/05/19 20:42:57;;;;;;;6.07;3.00;;;28.90;50.30;;;;;;10092401;28;20022;-65
2022/05/19 20:47:48;;;;;;;5.03;3.17;;;28.90;50.50;;;;;;10091081;28;20071;-65
2022/05/19 20:52:40;;;;;;;6.65;3.58;;;28.80;50.90;;;;;;10091063;28;20036;-65
2022/05/19 20:57:31;;;;;;;4.68;2.78;;;28.80;51.10;;;;;;10094510;28;20017;-64
2022/05/19 21:02:22;;;;;;;4.40;2.75;;;28.70;51.30;;;;;;10090830;28;20019;-65
2022/05/19 21:07:13;;;;;;;4.28;3.40;;;28.80;51.40;;;;;;10080947;28;20372;-66
2022/05/19 21:12:04;;;;;;;6.78;3.67;;;28.70;51.70;;;;;;10095398;28;20021;-65
2022/05/19 21:16:55;;;;;;;3.72;3.08;;;28.70;51.70;;;;;;10092483;28;20401;-65
2022/05/19 21:21:46;;;;;;;5.20;2.92;;;28.80;51.70;;;;;;10090432;28;20490;-66
2022/05/19 21:26:37;;;;;;;7.43;3.83;;;28.70;51.70;;;;;;10089745;28;20443;-64
2022/05/19 21:31:27;;;;;;;6.53;3.17;;;28.60;51.80;;;;;;10097215;28;20017;-65
2022/05/19 21:36:18;;;;;;;7.72;2.88;;;28.60;52.10;;;;;;10096457;28;20104;-63
2022/05/19 21:41:09;;;;;;;5.38;3.50;;;28.60;52.20;;;;;;10089247;28;20053;-66
2022/05/19 21:46:02;;;;;;;10.20;3.47;;;28.60;52.30;;;;;;10089295;28;20060;-68
2022/05/19 21:56:01;;;;;;;31.48;3.92;;;28.50;52.50;;;;;;10090288;28;20107;-61
2022/05/19 22:00:54;;;;;;;3.60;2.70;;;28.20;53.50;;;;;;10096655;28;20078;-62
2022/05/19 22:07:32;;;;;;;5.70;2.67;;;28.00;54.00;;;;;;10086686;28;20032;-64
2022/05/19 22:10:59;;;;;;;4.50;2.85;;;27.90;54.20;;;;;;10095592;28;20549;-63
2022/05/19 22:15:50;;;;;;;5.40;3.00;;;27.90;54.40;;;;;;10086939;28;20048;-62
2022/05/19 22:20:40;;;;;;;3.53;3.17;;;27.70;55.10;;;;;;10092211;28;20074;-63
2022/05/19 22:25:31;;;;;;;7.40;3.28;;;27.60;55.30;;;;;;10097267;28;20053;-65
2022/05/19 22:30:22;;;;;;;5.75;3.10;;;27.60;55.30;;;;;;10096148;28;20471;-62
2022/05/19 22:35:12;;;;;;;4.00;3.58;;;27.60;55.40;;;;;;10097084;28;20110;-64
2022/05/19 22:40:04;;;;;;;6.53;2.95;;;27.70;55.70;;;;;;10095937;28;20033;-64
2022/05/19 22:44:55;;;;;;;6.07;3.22;;;27.70;55.60;;;;;;10095815;28;20024;-65
2022/05/19 22:49:45;;;;;;;7.35;3.88;;;27.80;55.70;;;;;;10097575;28;20033;-67
2022/05/19 22:54:37;;;;;;;5.60;3.40;;;27.80;55.90;;;;;;10102369;28;20016;-67
2022/05/19 22:59:28;;;;;;;7.00;3.85;;;27.60;56.10;;;;;;10098240;28;20025;-66
2022/05/19 23:04:18;;;;;;;8.65;3.70;;;27.50;56.40;;;;;;10094618;28;20467;-64
2022/05/19 23:09:09;;;;;;;6.43;3.10;;;27.50;56.70;;;;;;10094498;28;20063;-67
2022/05/19 23:14:00;;;;;;;6.97;3.53;;;27.50;56.80;;;;;;10095005;28;20017;-69
2022/05/19 23:18:51;;;;;;;4.00;3.15;;;27.40;56.80;;;;;;10095488;28;20407;-64
2022/05/19 23:23:42;;;;;;;3.88;3.38;;;27.40;56.90;;;;;;10094241;28;20025;-70
2022/05/19 23:28:32;;;;;;;6.20;3.58;;;27.30;57.10;;;;;;10093402;28;20044;-64
2022/05/19 23:33:23;;;;;;;4.65;3.03;;;27.30;57.20;;;;;;10094669;28;20025;-69
2022/05/19 23:38:14;;;;;;;4.10;3.10;;;27.20;57.60;;;;;;10093115;28;20137;-66
2022/05/19 23:43:05;;;;;;;4.45;3.25;;;27.10;57.80;;;;;;10092922;28;20676;-68
2022/05/19 23:47:56;;;;;;;7.85;3.58;;;27.10;58.10;;;;;;10093044;28;20626;-66
2022/05/19 23:52:47;;;;;;;4.20;2.75;;;27.10;58.20;;;;;;10093042;28;20111;-64
2022/05/19 23:57:37;;;;;;;9.20;3.58;;;27.20;58.10;;;;;;10093727;28;20526;-64
